sensor_id;sensor_type;location;lat;lon;timestamp;P1;durP1;ratioP1;P2;durP2;ratioP2
2652;SDS011;1336;48.692;9.144;2023-05-08T05:00:28;20.30;;;18.40;;
2652;SDS011;1336;48.692;9.144;2023-05-08T05:01:20;19.73;;;17.75;;
2652;SDS011;1336;48.692;9.144;2023-05-08T05:02:11;20.10;;;18.40;;
2652;SDS011;1336;48.692;9.144;2023-05-08T05:03:02;21.73;;;19.73;;
2652;SDS011;1336;48.692;9.144;2023-05-08T05:03:53;26.20;;;19.60;;
2652;SDS011;1336;48.692;9.144;2023-05-08T05:04:45;21.42;;;19.42;;
2652;SDS011;1336;48.692;9.144;2023-05-08T05:05:35;22.27;;;20.33;;
2652;SDS011;1336;48.692;9.144;2023-05-08T05:06:26;21.43;;;19.50;;
2652;SDS011;1336;48.692;9.144;2023-05-08T05:07:18;21.98;;;20.08;;
2652;SDS011;1336;48.692;9.144;2023-05-08T05:08:09;21.60;;;19.60;;
2652;SDS011;1336;48.692;9.144;2023-05-08T05:09:00;22.55;;;20.55;;
2652;SDS011;1336;48.692;9.144;2023-05-08T05:09:51;21.87;;;19.47;;
2652;SDS011;1336;48.692;9.144;2023-05-08T05:10:43;21.08;;;19.08;;
2652;SDS011;1336;48.692;9.144;2023-05-08T05:11:34;21.00;;;18.90;;
2652;SDS011;1336;48.692;9.144;2023-05-08T05:12:25;20.58;;;18.70;;
2652;SDS011;1336;48.692;9.144;2023-05-08T05:13:16;20.73;;;18.87;;
2652;SDS011;1336;48.692;9.144;2023-05-08T05:14:08;20.73;;;18.75;;
2652;SDS011;1336;48.692;9.144;2023-05-08T05:14:59;21.70;;;19.60;;
2652;SDS011;1336;48.692;9.144;2023-05-08T05:15:52;21.73;;;19.50;;
2652;SDS011;1336;48.692;9.144;2023-05-08T05:16:43;20.30;;;18.60;;
2652;SDS011;1336;48.692;9.144;2023-05-08T05:17:35;19.55;;;17.75;;
2652;SDS011;1336;48.692;9.144;2023-05-08T05:18:25;20.97;;;18.87;;
2652;SDS011;1336;48.692;9.144;2023-05-08T05:19:17;20.55;;;18.75;;
2652;SDS011;1336;48.692;9.144;2023-05-08T05:20:08;21.30;;;19.30;;
2652;SDS011;1336;48.692;9.144;2023-05-08T05:21:01;23.00;;;21.00;;
2652;SDS011;1336;48.692;9.144;2023-05-08T05:21:52;22.67;;;20.48;;
2652;SDS011;1336;48.692;9.144;2023-05-08T05:22:44;21.67;;;19.63;;
2652;SDS011;1336;48.692;9.144;2023-05-08T05:23:35;21.87;;;19.87;;
2652;SDS011;1336;48.692;9.144;2023-05-08T05:24:27;23.20;;;21.10;;
2652;SDS011;1336;48.692;9.144;2023-05-08T05:25:17;23.20;;;21.00;;
2652;SDS011;1336;48.692;9.144;2023-05-08T05:26:08;21.13;;;19.03;;
2652;SDS011;1336;48.692;9.144;2023-05-08T05:27:00;22.42;;;20.23;;
2652;SDS011;1336;48.692;9.144;2023-05-08T05:27:51;21.57;;;19.43;;
2652;SDS011;1336;48.692;9.144;2023-05-08T05:28:42;21.75;;;19.75;;
2652;SDS011;1336;48.692;9.144;2023-05-08T05:29:33;20.70;;;18.73;;
2652;SDS011;1336;48.692;9.144;2023-05-08T05:30:25;20.75;;;18.73;;
2652;SDS011;1336;48.692;9.144;2023-05-08T05:31:17;19.93;;;18.13;;
2652;SDS011;1336;48.692;9.144;2023-05-08T05:32:09;18.80;;;17.08;;
2652;SDS011;1336;48.692;9.144;2023-05-08T05:33:00;18.60;;;16.92;;
2652;SDS011;1336;48.692;9.144;2023-05-08T05:33:52;18.67;;;17.05;;
2652;SDS011;1336;48.692;9.144;2023-05-08T05:34:43;19.47;;;17.73;;
2652;SDS011;1336;48.692;9.144;2023-05-08T05:35:34;17.75;;;16.05;;
2652;SDS011;1336;48.692;9.144;2023-05-08T05:36:25;18.20;;;16.63;;
2652;SDS011;1336;48.692;9.144;2023-05-08T05:37:17;16.88;;;15.40;;
2652;SDS011;1336;48.692;9.144;2023-05-08T05:38:08;17.98;;;16.38;;
2652;SDS011;1336;48.692;9.144;2023-05-08T05:39:00;18.92;;;17.23;;
2652;SDS011;1336;48.692;9.144;2023-05-08T05:39:51;18.60;;;17.00;;
2652;SDS011;1336;48.692;9.144;2023-05-08T05:40:42;22.02;;;20.05;;
2652;SDS011;1336;48.692;9.144;2023-05-08T05:41:33;21.60;;;19.57;;
2652;SDS011;1336;48.692;9.144;2023-05-08T05:42:25;22.15;;;20.05;;
2652;SDS011;1336;48.692;9.144;2023-05-08T05:43:16;22.63;;;20.40;;
2652;SDS011;1336;48.692;9.144;2023-05-08T05:44:07;21.88;;;19.70;;
2652;SDS011;1336;48.692;9.144;2023-05-08T05:44:58;22.73;;;20.60;;
2652;SDS011;1336;48.692;9.144;2023-05-08T05:45:50;21.05;;;19.25;;
2652;SDS011;1336;48.692;9.144;2023-05-08T05:46:43;21.70;;;19.70;;
2652;SDS011;1336;48.692;9.144;2023-05-08T05:47:34;20.88;;;18.92;;
2652;SDS011;1336;48.692;9.144;2023-05-08T05:48:25;21.47;;;19.40;;
2652;SDS011;1336;48.692;9.144;2023-05-08T05:49:17;20.52;;;18.63;;
2652;SDS011;1336;48.692;9.144;2023-05-08T05:50:08;18.87;;;17.27;;
2652;SDS011;1336;48.692;9.144;2023-05-08T05:51:00;20.92;;;18.95;;
2652;SDS011;1336;48.692;9.144;2023-05-08T05:51:51;18.00;;;16.50;;
2652;SDS011;1336;48.692;9.144;2023-05-08T05:52:42;18.20;;;16.67;;
2652;SDS011;1336;48.692;9.144;2023-05-08T05:53:33;17.67;;;16.07;;
2652;SDS011;1336;48.692;9.144;2023-05-08T05:54:25;17.58;;;15.98;;
2652;SDS011;1336;48.692;9.144;2023-05-08T05:55:16;17.43;;;15.97;;
2652;SDS011;1336;48.692;9.144;2023-05-08T05:56:07;17.52;;;16.02;;
2652;SDS011;1336;48.692;9.144;2023-05-08T05:56:58;17.67;;;16.17;;
2652;SDS011;1336;48.692;9.144;2023-05-08T05:57:50;17.30;;;15.77;;
2652;SDS011;1336;48.692;9.144;2023-05-08T05:58:40;17.83;;;16.33;;
2652;SDS011;1336;48.692;9.144;2023-05-08T05:59:34;17.33;;;15.75;;
2652;SDS011;1336;48.692;9.144;2023-05-08T06:00:25;17.60;;;16.10;;
2652;SDS011;1336;48.692;9.144;2023-05-08T06:01:16;16.60;;;15.20;;
2652;SDS011;1336;48.692;9.144;2023-05-08T06:02:08;18.03;;;16.50;;
2652;SDS011;1336;48.692;9.144;2023-05-08T06:03:03;18.80;;;17.00;;
2652;SDS011;1336;48.692;9.144;2023-05-08T06:03:54;16.60;;;15.10;;
2652;SDS011;1336;48.692;9.144;2023-05-08T06:04:46;18.08;;;16.50;;
2652;SDS011;1336;48.692;9.144;2023-05-08T06:05:39;18.38;;;16.65;;
2652;SDS011;1336;48.692;9.144;2023-05-08T06:06:31;18.20;;;16.60;;
2652;SDS011;1336;48.692;9.144;2023-05-08T06:07:21;17.20;;;15.70;;
2652;SDS011;1336;48.692;9.144;2023-05-08T06:08:13;17.42;;;15.93;;
2652;SDS011;1336;48.692;9.144;2023-05-08T06:09:05;16.90;;;15.40;;
2652;SDS011;1336;48.692;9.144;2023-05-08T06:09:57;17.45;;;15.82;;
2652;SDS011;1336;48.692;9.144;2023-05-08T06:10:48;16.95;;;15.55;;
2652;SDS011;1336;48.692;9.144;2023-05-08T06:11:40;17.23;;;15.52;;
2652;SDS011;1336;48.692;9.144;2023-05-08T06:12:31;17.73;;;16.23;;
2652;SDS011;1336;48.692;9.144;2023-05-08T06:13:23;17.63;;;16.17;;
2652;SDS011;1336;48.692;9.144;2023-05-08T06:14:14;18.67;;;16.80;;
2652;SDS011;1336;48.692;9.144;2023-05-08T06:15:06;17.73;;;16.23;;
2652;SDS011;1336;48.692;9.144;2023-05-08T06:15:57;16.95;;;15.45;;
2652;SDS011;1336;48.692;9.144;2023-05-08T06:16:49;19.02;;;17.23;;
2652;SDS011;1336;48.692;9.144;2023-05-08T06:17:41;18.13;;;16.52;;
2652;SDS011;1336;48.692;9.144;2023-05-08T06:18:33;16.02;;;14.63;;
2652;SDS011;1336;48.692;9.144;2023-05-08T06:19:23;18.50;;;16.80;;
2652;SDS011;1336;48.692;9.144;2023-05-08T06:20:17;17.83;;;16.33;;
2652;SDS011;1336;48.692;9.144;2023-05-08T06:21:08;17.77;;;16.07;;
2652;SDS011;1336;48.692;9.144;2023-05-08T06:22:00;16.67;;;15.27;;
2652;SDS011;1336;48.692;9.144;2023-05-08T06:22:51;16.13;;;14.77;;
2652;SDS011;1336;48.692;9.144;2023-05-08T06:23:42;17.92;;;16.20;;
2652;SDS011;1336;48.692;9.144;2023-05-08T06:24:33;16.53;;;14.97;;
2652;SDS011;1336;48.692;9.144;2023-05-08T06:25:25;16.25;;;14.85;;
2652;SDS011;1336;48.692;9.144;2023-05-08T06:26:17;17.05;;;15.65;;
2652;SDS011;1336;48.692;9.144;2023-05-08T06:27:08;15.90;;;14.40;;
2652;SDS011;1336;48.692;9.144;2023-05-08T06:27:59;16.10;;;14.70;;
2652;SDS011;1336;48.692;9.144;2023-05-08T06:28:52;16.83;;;15.45;;
2652;SDS011;1336;48.692;9.144;2023-05-08T06:29:43;17.33;;;15.63;;
2652;SDS011;1336;48.692;9.144;2023-05-08T06:30:35;17.08;;;15.68;;
2652;SDS011;1336;48.692;9.144;2023-05-08T06:31:25;18.47;;;16.87;;
2652;SDS011;1336;48.692;9.144;2023-05-08T06:32:17;18.38;;;16.83;;
2652;SDS011;1336;48.692;9.144;2023-05-08T06:33:10;19.05;;;17.20;;
2652;SDS011;1336;48.692;9.144;2023-05-08T06:34:01;17.83;;;16.17;;
2652;SDS011;1336;48.692;9.144;2023-05-08T06:34:52;19.30;;;17.60;;
2652;SDS011;1336;48.692;9.144;2023-05-08T06:35:44;18.10;;;16.45;;
2652;SDS011;1336;48.692;9.144;2023-05-08T06:36:36;17.45;;;15.85;;
2652;SDS011;1336;48.692;9.144;2023-05-08T06:37:28;16.67;;;15.30;;
2652;SDS011;1336;48.692;9.144;2023-05-08T06:38:18;18.20;;;16.60;;
2652;SDS011;1336;48.692;9.144;2023-05-08T06:39:10;16.70;;;15.10;;
2652;SDS011;1336;48.692;9.144;2023-05-08T06:40:01;19.23;;;16.67;;
2652;SDS011;1336;48.692;9.144;2023-05-08T06:40:53;16.45;;;15.00;;
2652;SDS011;1336;48.692;9.144;2023-05-08T06:41:45;17.83;;;16.23;;
2652;SDS011;1336;48.692;9.144;2023-05-08T06:42:37;18.48;;;16.98;;
2652;SDS011;1336;48.692;9.144;2023-05-08T06:43:28;16.60;;;15.20;;
2652;SDS011;1336;48.692;9.144;2023-05-08T06:44:20;17.02;;;15.52;;
2652;SDS011;1336;48.692;9.144;2023-05-08T06:45:10;16.90;;;15.30;;
2652;SDS011;1336;48.692;9.144;2023-05-08T06:46:02;18.33;;;16.63;;
2652;SDS011;1336;48.692;9.144;2023-05-08T06:46:53;18.35;;;16.85;;
2652;SDS011;1336;48.692;9.144;2023-05-08T06:47:45;18.27;;;16.50;;
2652;SDS011;1336;48.692;9.144;2023-05-08T06:48:37;17.90;;;16.17;;
2652;SDS011;1336;48.692;9.144;2023-05-08T06:49:29;16.48;;;15.07;;
2652;SDS011;1336;48.692;9.144;2023-05-08T06:50:19;18.47;;;16.87;;
2652;SDS011;1336;48.692;9.144;2023-05-08T06:51:11;17.05;;;15.63;;
2652;SDS011;1336;48.692;9.144;2023-05-08T06:52:02;18.00;;;16.47;;
2652;SDS011;1336;48.692;9.144;2023-05-08T06:52:54;18.35;;;16.75;;
2652;SDS011;1336;48.692;9.144;2023-05-08T06:53:45;19.00;;;17.40;;
2652;SDS011;1336;48.692;9.144;2023-05-08T06:54:36;18.15;;;16.55;;
2652;SDS011;1336;48.692;9.144;2023-05-08T06:55:27;19.30;;;17.60;;
2652;SDS011;1336;48.692;9.144;2023-05-08T06:56:19;17.88;;;16.27;;
2652;SDS011;1336;48.692;9.144;2023-05-08T06:57:10;16.77;;;15.37;;
2652;SDS011;1336;48.692;9.144;2023-05-08T06:58:03;17.08;;;15.52;;
2652;SDS011;1336;48.692;9.144;2023-05-08T06:58:54;17.83;;;16.23;;
2652;SDS011;1336;48.692;9.144;2023-05-08T06:59:45;18.50;;;17.00;;
2652;SDS011;1336;48.692;9.144;2023-05-08T07:00:36;17.63;;;16.13;;
2652;SDS011;1336;48.692;9.144;2023-05-08T07:01:28;18.05;;;16.45;;
2652;SDS011;1336;48.692;9.144;2023-05-08T07:02:18;17.53;;;16.00;;
2652;SDS011;1336;48.692;9.144;2023-05-08T07:03:10;17.02;;;15.63;;
2652;SDS011;1336;48.692;9.144;2023-05-08T07:04:03;17.23;;;15.77;;
2652;SDS011;1336;48.692;9.144;2023-05-08T07:04:55;17.35;;;15.85;;
2652;SDS011;1336;48.692;9.144;2023-05-08T07:05:45;18.57;;;16.97;;
2652;SDS011;1336;48.692;9.144;2023-05-08T07:06:37;18.13;;;16.30;;
2652;SDS011;1336;48.692;9.144;2023-05-08T07:07:28;17.50;;;16.07;;
2652;SDS011;1336;48.692;9.144;2023-05-08T07:08:20;16.70;;;15.27;;
2652;SDS011;1336;48.692;9.144;2023-05-08T07:09:10;16.20;;;14.80;;
2652;SDS011;1336;48.692;9.144;2023-05-08T07:10:02;17.08;;;15.55;;
2652;SDS011;1336;48.692;9.144;2023-05-08T07:10:53;16.35;;;14.20;;
2652;SDS011;1336;48.692;9.144;2023-05-08T07:11:45;15.85;;;14.55;;
2652;SDS011;1336;48.692;9.144;2023-05-08T07:12:37;14.20;;;12.90;;
2652;SDS011;1336;48.692;9.144;2023-05-08T07:13:28;16.45;;;14.95;;
2652;SDS011;1336;48.692;9.144;2023-05-08T07:14:19;16.93;;;15.20;;
2652;SDS011;1336;48.692;9.144;2023-05-08T07:15:11;14.00;;;12.80;;
2652;SDS011;1336;48.692;9.144;2023-05-08T07:16:07;14.68;;;13.48;;
2652;SDS011;1336;48.692;9.144;2023-05-08T07:17:01;13.88;;;12.68;;
2652;SDS011;1336;48.692;9.144;2023-05-08T07:17:55;14.48;;;13.27;;
2652;SDS011;1336;48.692;9.144;2023-05-08T07:18:47;15.50;;;14.10;;
2652;SDS011;1336;48.692;9.144;2023-05-08T07:19:39;15.33;;;13.90;;
2652;SDS011;1336;48.692;9.144;2023-05-08T07:20:31;15.45;;;14.15;;
2652;SDS011;1336;48.692;9.144;2023-05-08T07:21:22;13.80;;;12.60;;
2652;SDS011;1336;48.692;9.144;2023-05-08T07:22:14;13.98;;;12.77;;
2652;SDS011;1336;48.692;9.144;2023-05-08T07:23:04;13.97;;;12.77;;
2652;SDS011;1336;48.692;9.144;2023-05-08T07:23:56;14.50;;;13.40;;
2652;SDS011;1336;48.692;9.144;2023-05-08T07:24:47;15.77;;;14.40;;
2652;SDS011;1336;48.692;9.144;2023-05-08T07:25:39;14.38;;;13.00;;
2652;SDS011;1336;48.692;9.144;2023-05-08T07:26:30;15.13;;;13.83;;
2652;SDS011;1336;48.692;9.144;2023-05-08T07:27:21;14.70;;;13.40;;
2652;SDS011;1336;48.692;9.144;2023-05-08T07:28:12;15.17;;;13.73;;
2652;SDS011;1336;48.692;9.144;2023-05-08T07:29:04;15.40;;;14.00;;
2652;SDS011;1336;48.692;9.144;2023-05-08T07:29:54;13.67;;;12.47;;
2652;SDS011;1336;48.692;9.144;2023-05-08T07:30:47;14.73;;;13.40;;
2652;SDS011;1336;48.692;9.144;2023-05-08T07:31:38;14.93;;;13.73;;
2652;SDS011;1336;48.692;9.144;2023-05-08T07:32:30;14.60;;;13.18;;
2652;SDS011;1336;48.692;9.144;2023-05-08T07:33:21;14.40;;;13.20;;
2652;SDS011;1336;48.692;9.144;2023-05-08T07:34:12;13.80;;;12.60;;
2652;SDS011;1336;48.692;9.144;2023-05-08T07:35:05;14.37;;;13.17;;
2652;SDS011;1336;48.692;9.144;2023-05-08T07:36:00;15.18;;;13.95;;
2652;SDS011;1336;48.692;9.144;2023-05-08T07:36:50;14.40;;;13.20;;
2652;SDS011;1336;48.692;9.144;2023-05-08T07:37:42;14.95;;;13.65;;
2652;SDS011;1336;48.692;9.144;2023-05-08T07:38:33;15.17;;;13.90;;
2652;SDS011;1336;48.692;9.144;2023-05-08T07:39:25;14.32;;;13.13;;
2652;SDS011;1336;48.692;9.144;2023-05-08T07:40:16;14.00;;;12.67;;
2652;SDS011;1336;48.692;9.144;2023-05-08T07:41:08;14.38;;;13.18;;
2652;SDS011;1336;48.692;9.144;2023-05-08T07:41:59;13.77;;;12.67;;
2652;SDS011;1336;48.692;9.144;2023-05-08T07:42:51;14.93;;;13.63;;
2652;SDS011;1336;48.692;9.144;2023-05-08T07:43:41;14.27;;;13.00;;
2652;SDS011;1336;48.692;9.144;2023-05-08T07:44:34;14.20;;;13.00;;
2652;SDS011;1336;48.692;9.144;2023-05-08T07:45:24;13.27;;;12.13;;
2652;SDS011;1336;48.692;9.144;2023-05-08T07:46:16;14.98;;;13.52;;
2652;SDS011;1336;48.692;9.144;2023-05-08T07:47:07;14.10;;;12.63;;
2652;SDS011;1336;48.692;9.144;2023-05-08T07:47:59;14.40;;;13.10;;
2652;SDS011;1336;48.692;9.144;2023-05-08T07:48:50;13.87;;;12.53;;
2652;SDS011;1336;48.692;9.144;2023-05-08T07:49:41;14.73;;;13.43;;
2652;SDS011;1336;48.692;9.144;2023-05-08T07:50:34;14.20;;;12.80;;
2652;SDS011;1336;48.692;9.144;2023-05-08T07:51:25;13.77;;;12.48;;
2652;SDS011;1336;48.692;9.144;2023-05-08T07:52:16;13.90;;;12.70;;
2652;SDS011;1336;48.692;9.144;2023-05-08T07:53:08;13.73;;;12.35;;
2652;SDS011;1336;48.692;9.144;2023-05-08T07:53:59;14.40;;;13.03;;
2652;SDS011;1336;48.692;9.144;2023-05-08T07:54:51;12.85;;;11.85;;
2652;SDS011;1336;48.692;9.144;2023-05-08T07:55:41;13.23;;;12.00;;
2652;SDS011;1336;48.692;9.144;2023-05-08T07:56:33;12.30;;;11.27;;
2652;SDS011;1336;48.692;9.144;2023-05-08T07:57:24;13.33;;;12.23;;
2652;SDS011;1336;48.692;9.144;2023-05-08T07:58:15;14.73;;;13.48;;
2652;SDS011;1336;48.692;9.144;2023-05-08T07:59:06;14.43;;;13.07;;
2652;SDS011;1336;48.692;9.144;2023-05-08T08:00:00;14.15;;;13.00;;
2652;SDS011;1336;48.692;9.144;2023-05-08T08:00:50;14.35;;;12.95;;
2652;SDS011;1336;48.692;9.144;2023-05-08T08:01:42;13.88;;;12.60;;
2652;SDS011;1336;48.692;9.144;2023-05-08T08:02:36;14.23;;;13.02;;
2652;SDS011;1336;48.692;9.144;2023-05-08T08:03:28;13.50;;;12.30;;
2652;SDS011;1336;48.692;9.144;2023-05-08T08:04:18;14.30;;;13.00;;
2652;SDS011;1336;48.692;9.144;2023-05-08T08:05:10;14.75;;;13.55;;
2652;SDS011;1336;48.692;9.144;2023-05-08T08:06:03;13.73;;;12.52;;
2652;SDS011;1336;48.692;9.144;2023-05-08T08:06:54;12.82;;;11.70;;
2652;SDS011;1336;48.692;9.144;2023-05-08T08:07:45;12.50;;;11.50;;
2652;SDS011;1336;48.692;9.144;2023-05-08T08:08:37;12.43;;;11.40;;
2652;SDS011;1336;48.692;9.144;2023-05-08T08:09:28;12.13;;;11.13;;
2652;SDS011;1336;48.692;9.144;2023-05-08T08:10:19;11.32;;;9.73;;
2652;SDS011;1336;48.692;9.144;2023-05-08T08:11:10;10.90;;;9.90;;
2652;SDS011;1336;48.692;9.144;2023-05-08T08:12:02;10.60;;;9.73;;
2652;SDS011;1336;48.692;9.144;2023-05-08T08:12:53;10.67;;;9.70;;
2652;SDS011;1336;48.692;9.144;2023-05-08T08:13:44;10.18;;;9.38;;
2652;SDS011;1336;48.692;9.144;2023-05-08T08:14:35;10.60;;;9.70;;
2652;SDS011;1336;48.692;9.144;2023-05-08T08:15:27;9.77;;;8.95;;
2652;SDS011;1336;48.692;9.144;2023-05-08T08:16:17;9.33;;;8.53;;
2652;SDS011;1336;48.692;9.144;2023-05-08T08:17:09;10.20;;;9.30;;
2652;SDS011;1336;48.692;9.144;2023-05-08T08:18:00;10.47;;;9.57;;
2652;SDS011;1336;48.692;9.144;2023-05-08T08:18:52;10.85;;;9.15;;
2652;SDS011;1336;48.692;9.144;2023-05-08T08:19:42;10.17;;;9.30;;
2652;SDS011;1336;48.692;9.144;2023-05-08T08:20:34;10.52;;;9.73;;
2652;SDS011;1336;48.692;9.144;2023-05-08T08:21:26;9.60;;;8.70;;
2652;SDS011;1336;48.692;9.144;2023-05-08T08:22:18;10.10;;;9.30;;
2652;SDS011;1336;48.692;9.144;2023-05-08T08:23:09;10.90;;;10.00;;
2652;SDS011;1336;48.692;9.144;2023-05-08T08:24:01;10.57;;;9.52;;
2652;SDS011;1336;48.692;9.144;2023-05-08T08:24:53;11.13;;;10.13;;
2652;SDS011;1336;48.692;9.144;2023-05-08T08:25:45;10.40;;;9.50;;
2652;SDS011;1336;48.692;9.144;2023-05-08T08:26:36;11.63;;;10.50;;
2652;SDS011;1336;48.692;9.144;2023-05-08T08:27:27;9.77;;;9.05;;
2652;SDS011;1336;48.692;9.144;2023-05-08T08:28:18;11.03;;;10.13;;
2652;SDS011;1336;48.692;9.144;2023-05-08T08:29:10;10.30;;;9.55;;
2652;SDS011;1336;48.692;9.144;2023-05-08T08:30:00;10.27;;;9.40;;
2652;SDS011;1336;48.692;9.144;2023-05-08T08:30:52;9.27;;;8.38;;
2652;SDS011;1336;48.692;9.144;2023-05-08T08:31:43;10.10;;;9.13;;
2652;SDS011;1336;48.692;9.144;2023-05-08T08:32:35;9.93;;;9.13;;
2652;SDS011;1336;48.692;9.144;2023-05-08T08:33:26;7.80;;;7.10;;
2652;SDS011;1336;48.692;9.144;2023-05-08T08:34:17;7.93;;;7.22;;
2652;SDS011;1336;48.692;9.144;2023-05-08T08:35:08;8.80;;;8.10;;
2652;SDS011;1336;48.692;9.144;2023-05-08T08:36:00;7.85;;;7.10;;
2652;SDS011;1336;48.692;9.144;2023-05-08T08:36:52;6.80;;;6.30;;
2652;SDS011;1336;48.692;9.144;2023-05-08T08:37:44;7.80;;;7.20;;
2652;SDS011;1336;48.692;9.144;2023-05-08T08:38:35;7.87;;;7.27;;
2652;SDS011;1336;48.692;9.144;2023-05-08T08:39:26;8.45;;;7.72;;
2652;SDS011;1336;48.692;9.144;2023-05-08T08:40:21;8.65;;;7.88;;
2652;SDS011;1336;48.692;9.144;2023-05-08T08:41:13;8.13;;;7.53;;
2652;SDS011;1336;48.692;9.144;2023-05-08T08:42:04;8.20;;;7.50;;
2652;SDS011;1336;48.692;9.144;2023-05-08T08:42:55;7.93;;;7.22;;
2652;SDS011;1336;48.692;9.144;2023-05-08T08:43:46;8.00;;;7.40;;
2652;SDS011;1336;48.692;9.144;2023-05-08T08:44:38;7.93;;;7.22;;
2652;SDS011;1336;48.692;9.144;2023-05-08T08:45:29;8.50;;;7.70;;
2652;SDS011;1336;48.692;9.144;2023-05-08T08:46:22;8.63;;;7.80;;
2652;SDS011;1336;48.692;9.144;2023-05-08T08:47:15;8.27;;;7.68;;
2652;SDS011;1336;48.692;9.144;2023-05-08T08:48:09;9.07;;;8.38;;
2652;SDS011;1336;48.692;9.144;2023-05-08T08:49:02;8.40;;;7.70;;
2652;SDS011;1336;48.692;9.144;2023-05-08T08:49:54;8.70;;;8.00;;
2652;SDS011;1336;48.692;9.144;2023-05-08T08:50:49;9.63;;;8.40;;
2652;SDS011;1336;48.692;9.144;2023-05-08T08:51:49;8.52;;;7.82;;
2652;SDS011;1336;48.692;9.144;2023-05-08T08:52:46;9.30;;;8.40;;
2652;SDS011;1336;48.692;9.144;2023-05-08T08:53:45;8.75;;;7.97;;
2652;SDS011;1336;48.692;9.144;2023-05-08T08:54:40;9.00;;;8.20;;
2652;SDS011;1336;48.692;9.144;2023-05-08T08:55:38;8.90;;;8.10;;
2652;SDS011;1336;48.692;9.144;2023-05-08T08:56:31;9.75;;;8.85;;
2652;SDS011;1336;48.692;9.144;2023-05-08T08:57:23;9.55;;;8.75;;
2652;SDS011;1336;48.692;9.144;2023-05-08T08:58:17;8.77;;;7.97;;
2652;SDS011;1336;48.692;9.144;2023-05-08T08:59:11;8.82;;;8.13;;
2652;SDS011;1336;48.692;9.144;2023-05-08T09:00:04;8.82;;;8.13;;
2652;SDS011;1336;48.692;9.144;2023-05-08T09:01:00;9.60;;;8.70;;
2652;SDS011;1336;48.692;9.144;2023-05-08T09:01:54;8.20;;;7.50;;
2652;SDS011;1336;48.692;9.144;2023-05-08T09:02:48;7.80;;;7.20;;
2652;SDS011;1336;48.692;9.144;2023-05-08T09:03:39;7.63;;;6.93;;
2652;SDS011;1336;48.692;9.144;2023-05-08T09:04:31;7.65;;;7.05;;
2652;SDS011;1336;48.692;9.144;2023-05-08T09:05:21;7.70;;;7.10;;
2652;SDS011;1336;48.692;9.144;2023-05-08T09:06:14;7.40;;;6.80;;
2652;SDS011;1336;48.692;9.144;2023-05-08T09:07:06;6.90;;;6.40;;
2652;SDS011;1336;48.692;9.144;2023-05-08T09:07:59;6.90;;;6.40;;
2652;SDS011;1336;48.692;9.144;2023-05-08T09:08:53;7.20;;;6.60;;
2652;SDS011;1336;48.692;9.144;2023-05-08T09:09:45;6.70;;;6.20;;
2652;SDS011;1336;48.692;9.144;2023-05-08T09:10:37;7.30;;;6.70;;
2652;SDS011;1336;48.692;9.144;2023-05-08T09:11:28;6.37;;;5.87;;
2652;SDS011;1336;48.692;9.144;2023-05-08T09:12:20;5.40;;;5.00;;
2652;SDS011;1336;48.692;9.144;2023-05-08T09:13:11;6.07;;;5.57;;
2652;SDS011;1336;48.692;9.144;2023-05-08T09:14:02;5.97;;;5.47;;
2652;SDS011;1336;48.692;9.144;2023-05-08T09:14:53;6.17;;;5.67;;
2652;SDS011;1336;48.692;9.144;2023-05-08T09:15:45;6.70;;;6.10;;
2652;SDS011;1336;48.692;9.144;2023-05-08T09:16:36;6.13;;;5.63;;
2652;SDS011;1336;48.692;9.144;2023-05-08T09:17:28;6.25;;;5.65;;
2652;SDS011;1336;48.692;9.144;2023-05-08T09:18:19;6.43;;;5.93;;
2652;SDS011;1336;48.692;9.144;2023-05-08T09:19:12;6.43;;;5.93;;
2652;SDS011;1336;48.692;9.144;2023-05-08T09:20:04;5.70;;;5.30;;
2652;SDS011;1336;48.692;9.144;2023-05-08T09:20:57;6.10;;;5.50;;
2652;SDS011;1336;48.692;9.144;2023-05-08T09:21:49;6.20;;;5.70;;
2652;SDS011;1336;48.692;9.144;2023-05-08T09:22:42;5.90;;;5.40;;
2652;SDS011;1336;48.692;9.144;2023-05-08T09:23:35;6.03;;;5.53;;
2652;SDS011;1336;48.692;9.144;2023-05-08T09:25:46;5.20;;;4.80;;
2652;SDS011;1336;48.692;9.144;2023-05-08T09:26:39;5.72;;;5.22;;
2652;SDS011;1336;48.692;9.144;2023-05-08T09:27:30;6.20;;;5.60;;
2652;SDS011;1336;48.692;9.144;2023-05-08T09:28:24;5.40;;;5.00;;
2652;SDS011;1336;48.692;9.144;2023-05-08T09:29:15;6.53;;;5.93;;
2652;SDS011;1336;48.692;9.144;2023-05-08T09:30:08;5.55;;;5.15;;
2652;SDS011;1336;48.692;9.144;2023-05-08T09:31:00;6.28;;;5.78;;
2652;SDS011;1336;48.692;9.144;2023-05-08T09:31:52;6.05;;;5.63;;
2652;SDS011;1336;48.692;9.144;2023-05-08T09:32:43;5.63;;;5.20;;
2652;SDS011;1336;48.692;9.144;2023-05-08T09:33:35;5.32;;;4.93;;
2652;SDS011;1336;48.692;9.144;2023-05-08T09:34:33;6.28;;;5.78;;
2652;SDS011;1336;48.692;9.144;2023-05-08T09:35:25;5.70;;;5.20;;
2652;SDS011;1336;48.692;9.144;2023-05-08T09:36:25;5.60;;;5.20;;
2652;SDS011;1336;48.692;9.144;2023-05-08T09:37:17;5.82;;;5.32;;
2652;SDS011;1336;48.692;9.144;2023-05-08T09:38:08;6.50;;;5.90;;
2652;SDS011;1336;48.692;9.144;2023-05-08T09:39:25;6.07;;;5.68;;
2652;SDS011;1336;48.692;9.144;2023-05-08T09:40:17;6.25;;;5.70;;
2652;SDS011;1336;48.692;9.144;2023-05-08T09:41:11;6.05;;;5.55;;
2652;SDS011;1336;48.692;9.144;2023-05-08T09:42:04;5.63;;;5.18;;
2652;SDS011;1336;48.692;9.144;2023-05-08T09:42:56;5.80;;;5.32;;
2652;SDS011;1336;48.692;9.144;2023-05-08T09:43:59;5.80;;;5.35;;
2652;SDS011;1336;48.692;9.144;2023-05-08T09:44:53;5.47;;;5.03;;
2652;SDS011;1336;48.692;9.144;2023-05-08T09:45:43;5.63;;;5.13;;
2652;SDS011;1336;48.692;9.144;2023-05-08T09:46:35;5.07;;;4.68;;
2652;SDS011;1336;48.692;9.144;2023-05-08T09:47:26;4.97;;;4.57;;
2652;SDS011;1336;48.692;9.144;2023-05-08T09:48:17;5.50;;;5.10;;
2652;SDS011;1336;48.692;9.144;2023-05-08T09:49:13;5.43;;;5.00;;
2652;SDS011;1336;48.692;9.144;2023-05-08T09:50:08;4.70;;;4.30;;
2652;SDS011;1336;48.692;9.144;2023-05-08T09:51:04;5.95;;;5.38;;
2652;SDS011;1336;48.692;9.144;2023-05-08T09:51:56;4.90;;;4.50;;
2652;SDS011;1336;48.692;9.144;2023-05-08T09:52:47;4.77;;;4.43;;
2652;SDS011;1336;48.692;9.144;2023-05-08T09:53:39;4.72;;;4.43;;
2652;SDS011;1336;48.692;9.144;2023-05-08T09:54:31;5.73;;;5.33;;
2652;SDS011;1336;48.692;9.144;2023-05-08T09:55:23;5.47;;;5.05;;
2652;SDS011;1336;48.692;9.144;2023-05-08T09:56:14;5.40;;;5.00;;
2652;SDS011;1336;48.692;9.144;2023-05-08T09:57:12;5.82;;;5.38;;
2652;SDS011;1336;48.692;9.144;2023-05-08T09:58:03;7.78;;;7.07;;
2652;SDS011;1336;48.692;9.144;2023-05-08T09:58:55;7.75;;;7.05;;
2652;SDS011;1336;48.692;9.144;2023-05-08T09:59:46;8.23;;;7.30;;
2652;SDS011;1336;48.692;9.144;2023-05-08T10:00:37;7.72;;;7.03;;
2652;SDS011;1336;48.692;9.144;2023-05-08T10:01:29;7.18;;;6.57;;
2652;SDS011;1336;48.692;9.144;2023-05-08T10:02:22;4.40;;;4.10;;
2652;SDS011;1336;48.692;9.144;2023-05-08T10:03:13;4.60;;;4.20;;
2652;SDS011;1336;48.692;9.144;2023-05-08T10:04:05;5.20;;;4.70;;
2652;SDS011;1336;48.692;9.144;2023-05-08T10:04:56;4.77;;;4.47;;
2652;SDS011;1336;48.692;9.144;2023-05-08T10:05:47;5.20;;;4.80;;
2652;SDS011;1336;48.692;9.144;2023-05-08T10:06:38;5.60;;;5.20;;
2652;SDS011;1336;48.692;9.144;2023-05-08T10:07:30;6.75;;;5.97;;
2652;SDS011;1336;48.692;9.144;2023-05-08T10:08:23;5.65;;;5.10;;
2652;SDS011;1336;48.692;9.144;2023-05-08T10:09:15;6.28;;;5.68;;
2652;SDS011;1336;48.692;9.144;2023-05-08T10:10:08;5.83;;;5.33;;
2652;SDS011;1336;48.692;9.144;2023-05-08T10:11:11;4.72;;;4.32;;
2652;SDS011;1336;48.692;9.144;2023-05-08T10:12:03;6.38;;;4.85;;
2652;SDS011;1336;48.692;9.144;2023-05-08T10:12:56;4.68;;;4.25;;
2652;SDS011;1336;48.692;9.144;2023-05-08T10:13:47;4.55;;;4.15;;
2652;SDS011;1336;48.692;9.144;2023-05-08T10:14:39;5.38;;;4.90;;
2652;SDS011;1336;48.692;9.144;2023-05-08T10:15:30;4.80;;;4.40;;
2652;SDS011;1336;48.692;9.144;2023-05-08T10:16:22;5.45;;;5.03;;
2652;SDS011;1336;48.692;9.144;2023-05-08T10:17:18;4.95;;;4.45;;
2652;SDS011;1336;48.692;9.144;2023-05-08T10:18:15;4.97;;;4.57;;